Time;durP1;ratioP1;P1;durP2;ratioP2;P2;SDS_P1;SDS_P2;PMS_P1;PMS_P2;Temp;Humidity;BMP_temperature;BMP_pressure;BME280_temperature;BME280_humidity;BME280_pressure;Samples;Min_cycle;Max_cycle;Signal;HPM_P1;HPM_P2
2021/11/02 00:01:06;;;;;;;6.15;3.45;;;7.70;99.90;;;;;;5093427;28;20101;-69
2021/11/02 00:03:32;;;;;;;11.15;3.00;;;7.70;99.90;;;;;;5093187;28;20040;-69
2021/11/02 00:05:58;;;;;;;5.78;2.92;;;7.70;99.90;;;;;;5093437;28;20500;-69
2021/11/02 00:08:24;;;;;;;7.60;3.40;;;7.70;99.90;;;;;;5093213;28;20080;-69
2021/11/02 00:10:50;;;;;;;4.22;3.60;;;7.60;99.90;;;;;;5092746;28;20050;-69
2021/11/02 00:13:17;;;;;;;6.13;3.70;;;7.70;99.90;;;;;;5093202;28;20032;-69
2021/11/02 00:15:46;;;;;;;7.80;3.53;;;7.60;99.90;;;;;;5093220;28;20047;-69
2021/11/02 00:18:12;;;;;;;8.30;3.90;;;7.60;99.90;;;;;;5091754;28;20040;-69
2021/11/02 00:20:38;;;;;;;4.50;3.47;;;7.60;99.90;;;;;;5092510;28;20044;-69
2021/11/02 00:23:06;;;;;;;5.78;3.63;;;7.60;99.90;;;;;;5092889;28;20040;-69
2021/11/02 00:25:32;;;;;;;5.82;4.28;;;7.60;99.90;;;;;;5092747;28;20047;-69
2021/11/02 00:28:06;;;;;;;6.72;3.80;;;7.50;99.90;;;;;;5092792;28;20044;-69
2021/11/02 00:30:32;;;;;;;6.20;3.60;;;7.50;99.90;;;;;;5091193;28;20123;-69
2021/11/02 00:32:58;;;;;;;5.38;3.90;;;7.50;99.90;;;;;;5093155;28;20440;-69
2021/11/02 00:35:26;;;;;;;7.65;3.67;;;7.40;99.90;;;;;;5093193;28;20377;-69
2021/11/02 00:37:53;;;;;;;6.57;4.13;;;7.40;99.90;;;;;;5095245;28;20534;-69
2021/11/02 00:40:20;;;;;;;7.43;4.07;;;7.40;99.90;;;;;;5096516;28;20123;-69
2021/11/02 00:42:58;;;;;;;6.07;3.90;;;7.40;99.90;;;;;;5096370;28;20047;-69
2021/11/02 00:45:31;;;;;;;4.68;3.22;;;7.40;99.90;;;;;;5096560;28;20043;-69
2021/11/02 00:47:59;;;;;;;7.60;4.10;;;7.30;99.90;;;;;;5096203;28;20075;-69
2021/11/02 00:50:27;;;;;;;6.00;3.88;;;7.30;99.90;;;;;;5095715;28;20036;-69
2021/11/02 00:52:54;;;;;;;5.60;4.00;;;7.30;99.90;;;;;;5099846;28;20119;-69
2021/11/02 00:55:20;;;;;;;5.70;4.22;;;7.30;99.90;;;;;;5096322;28;20036;-69
2021/11/02 00:57:46;;;;;;;7.60;4.43;;;7.30;99.90;;;;;;5096209;28;20069;-69
2021/11/02 01:00:13;;;;;;;6.90;4.32;;;7.30;99.90;;;;;;5095884;28;20050;-69
2021/11/02 01:02:38;;;;;;;5.95;4.05;;;7.20;99.90;;;;;;5094830;28;20044;-69
2021/11/02 01:05:07;;;;;;;6.60;4.65;;;7.20;99.90;;;;;;5096105;28;20032;-69
2021/11/02 01:07:33;;;;;;;7.05;4.32;;;7.20;99.90;;;;;;5095078;28;20152;-69
2021/11/02 01:10:00;;;;;;;6.78;4.95;;;7.20;99.90;;;;;;5094582;28;20504;-69
2021/11/02 01:12:26;;;;;;;5.28;3.85;;;7.20;99.90;;;;;;5095914;28;20046;-69
2021/11/02 01:14:52;;;;;;;8.05;4.57;;;7.20;99.90;;;;;;5096014;28;20463;-69
2021/11/02 01:17:18;;;;;;;9.05;5.38;;;7.20;99.90;;;;;;5095600;28;20450;-69
2021/11/02 01:19:44;;;;;;;5.53;4.65;;;7.10;99.90;;;;;;5095437;28;20075;-69
2021/11/02 01:22:10;;;;;;;6.05;4.15;;;7.10;99.90;;;;;;5095895;28;20135;-69
2021/11/02 01:24:36;;;;;;;7.28;4.72;;;7.10;99.90;;;;;;5095830;28;20492;-69
2021/11/02 01:27:02;;;;;;;7.07;4.70;;;7.10;99.90;;;;;;5095957;28;20404;-69
2021/11/02 01:29:28;;;;;;;7.20;4.40;;;7.10;99.90;;;;;;5095345;28;20373;-69
2021/11/02 01:31:53;;;;;;;7.07;4.43;;;7.20;99.90;;;;;;5094673;28;20073;-69
2021/11/02 01:34:19;;;;;;;6.65;4.25;;;7.10;99.90;;;;;;5095631;28;20043;-69
2021/11/02 01:36:45;;;;;;;10.25;5.13;;;7.10;99.90;;;;;;5095270;28;20055;-69
2021/11/02 01:39:11;;;;;;;7.45;4.45;;;7.10;99.90;;;;;;5095166;28;20040;-69
2021/11/02 01:41:37;;;;;;;8.23;5.30;;;7.10;99.90;;;;;;5095271;28;20445;-69
2021/11/02 01:44:03;;;;;;;8.30;5.25;;;7.10;99.90;;;;;;5094395;28;20032;-69
2021/11/02 01:46:34;;;;;;;7.32;4.90;;;7.10;99.90;;;;;;5093905;28;20043;-69
2021/11/02 01:49:01;;;;;;;7.97;5.03;;;7.10;99.90;;;;;;5094250;28;20387;-69
2021/11/02 01:51:29;;;;;;;7.25;4.70;;;7.10;99.90;;;;;;5095249;28;20082;-69
2021/11/02 01:53:55;;;;;;;7.70;4.90;;;7.00;99.90;;;;;;5093875;28;20032;-69
2021/11/02 01:56:21;;;;;;;7.85;4.88;;;7.00;99.90;;;;;;5094926;28;20396;-69
2021/11/02 01:58:52;;;;;;;6.25;4.43;;;7.00;99.90;;;;;;5094909;28;20420;-69
2021/11/02 02:01:51;;;;;;;8.23;5.20;;;7.00;99.90;;;;;;5094894;28;20066;-69
2021/11/02 02:04:47;;;;;;;14.27;4.97;;;6.90;99.90;;;;;;5094955;28;20069;-69
2021/11/02 02:07:40;;;;;;;8.90;5.70;;;6.90;99.90;;;;;;5092341;28;20052;-69
2021/11/02 02:10:22;;;;;;;9.38;5.78;;;6.90;99.90;;;;;;5093276;28;20047;-69
2021/11/02 02:12:50;;;;;;;9.45;5.85;;;6.90;99.90;;;;;;5093534;28;20040;-69
2021/11/02 02:15:27;;;;;;;8.27;5.75;;;6.90;99.90;;;;;;5093536;28;20541;-69
2021/11/02 02:18:07;;;;;;;9.85;5.47;;;6.90;99.90;;;;;;5094932;28;20044;-69
2021/11/02 02:21:01;;;;;;;8.93;5.30;;;6.90;99.90;;;;;;5093192;28;20507;-69
2021/11/02 02:23:37;;;;;;;;;;;6.90;99.90;;;;;;5094955;28;20119;-69
2021/11/02 02:26:09;;;;;;;9.18;5.57;;;6.90;99.90;;;;;;5095047;28;19916;-69
2021/11/02 02:28:40;;;;;;;8.48;5.88;;;6.90;99.90;;;;;;5092876;28;20396;-69
2021/11/02 02:31:11;;;;;;;8.00;5.85;;;6.90;99.90;;;;;;5094335;28;20044;-69
2021/11/02 02:33:46;;;;;;;11.63;6.53;;;6.90;99.90;;;;;;5094492;28;20048;-69
2021/11/02 02:36:13;;;;;;;7.68;5.93;;;6.90;99.90;;;;;;5094501;28;20028;-69
2021/11/02 02:38:41;;;;;;;10.05;5.43;;;6.90;99.90;;;;;;5092619;28;20044;-69
2021/11/02 02:41:08;;;;;;;10.40;5.85;;;6.80;99.90;;;;;;5094366;28;20036;-69
2021/11/02 02:43:41;;;;;;;7.30;5.78;;;6.80;99.90;;;;;;5094428;28;20065;-69
2021/11/02 02:46:08;;;;;;;8.20;5.40;;;6.80;99.90;;;;;;5092926;28;20051;-69
2021/11/02 02:48:34;;;;;;;8.18;5.80;;;6.80;99.90;;;;;;5093809;28;20036;-69
2021/11/02 02:51:02;;;;;;;10.65;5.55;;;6.80;99.90;;;;;;5092747;28;20056;-69
2021/11/02 02:53:30;;;;;;;9.93;5.97;;;6.80;99.90;;;;;;5094257;28;20032;-69
2021/11/02 02:56:01;;;;;;;7.28;5.40;;;6.80;99.90;;;;;;5092525;28;20050;-69
2021/11/02 02:58:34;;;;;;;6.85;5.32;;;6.80;99.90;;;;;;5093660;28;20457;-69
2021/11/02 03:00:59;;;;;;;10.85;6.47;;;6.80;99.90;;;;;;5093520;28;20089;-69
2021/11/02 03:03:26;;;;;;;7.30;5.25;;;6.80;99.90;;;;;;5093843;28;20039;-69
2021/11/02 03:05:53;;;;;;;11.02;6.47;;;6.80;99.90;;;;;;5093710;28;20074;-69
2021/11/02 03:08:22;;;;;;;10.80;5.63;;;6.80;99.90;;;;;;5093912;28;20400;-69
2021/11/02 03:10:52;;;;;;;10.27;5.60;;;6.80;99.90;;;;;;5092048;28;20040;-69
2021/11/02 03:13:19;;;;;;;8.10;5.40;;;6.80;99.90;;;;;;5093955;28;20031;-69
2021/11/02 03:15:52;;;;;;;7.80;6.00;;;6.80;99.90;;;;;;5092791;28;20115;-69
2021/11/02 03:18:58;;;;;;;8.57;5.63;;;6.80;99.90;;;;;;5093705;28;20400;-69
2021/11/02 03:44:12;;;;;;;10.15;5.45;;;6.60;99.90;;;;;;5091874;28;20052;-69
2021/11/02 03:54:49;;;;;;;10.00;5.93;;;6.60;99.90;;;;;;5092381;28;20040;-69
2021/11/02 03:57:28;;;;;;;7.22;5.78;;;6.60;99.90;;;;;;5091927;28;20040;-69
2021/11/02 05:57:16;;;;;;;17.30;11.43;;;6.30;99.90;;;;;;5093771;28;20197;-69
2021/11/02 05:59:46;;;;;;;20.73;11.70;;;6.30;99.90;;;;;;5094606;28;20553;-69
2021/11/02 06:08:02;;;;;;;15.60;10.07;;;6.30;99.90;;;;;;5095092;28;20039;-69
2021/11/02 06:30:20;;;;;;;17.98;11.20;;;6.30;99.90;;;;;;5092684;28;20056;-69
2021/11/02 06:32:51;;;;;;;12.70;9.30;;;6.30;99.90;;;;;;5094386;28;20437;-69
2021/11/02 06:35:31;;;;;;;18.80;11.45;;;6.30;99.90;;;;;;5094075;28;20377;-69
2021/11/02 06:52:26;;;;;;;19.35;11.25;;;6.50;99.90;;;;;;5094101;28;20054;-70
2021/11/02 07:00:27;;;;;;;19.92;12.55;;;6.60;99.90;;;;;;5092337;28;20052;-69
2021/11/02 08:47:18;;;;;;;38.53;21.73;;;7.60;99.90;;;;;;5093071;28;20039;-69
2021/11/02 08:49:46;;;;;;;37.33;22.02;;;7.60;99.90;;;;;;5092371;28;20119;-69
2021/11/02 08:52:14;;;;;;;36.45;23.10;;;7.60;99.90;;;;;;5092654;28;20495;-69
2021/11/02 08:54:42;;;;;;;38.47;23.42;;;7.70;99.90;;;;;;5092676;28;20047;-69
2021/11/02 08:57:09;;;;;;;37.25;21.73;;;7.60;99.90;;;;;;5092837;28;20089;-69
2021/11/02 08:59:35;;;;;;;34.45;21.42;;;7.60;99.90;;;;;;5095914;28;20036;-69
2021/11/02 09:02:06;;;;;;;35.40;22.15;;;7.70;99.90;;;;;;5094816;28;20044;-69
2021/11/02 09:04:32;;;;;;;34.38;22.48;;;7.70;99.90;;;;;;5095190;28;20070;-69
2021/11/02 09:07:04;;;;;;;33.65;21.48;;;7.70;99.90;;;;;;5096190;28;20044;-69
2021/11/02 09:09:33;;;;;;;35.80;22.27;;;7.70;99.90;;;;;;5095693;28;20072;-69
2021/11/02 09:12:02;;;;;;;34.33;21.10;;;7.70;99.90;;;;;;5095831;28;20040;-69
2021/11/02 09:14:34;;;;;;;36.13;22.05;;;7.80;99.90;;;;;;5094695;28;20040;-69
2021/11/02 09:17:01;;;;;;;35.78;21.05;;;7.80;99.90;;;;;;5096053;28;20426;-69
2021/11/02 09:19:29;;;;;;;36.58;22.42;;;7.80;99.90;;;;;;5096044;28;20040;-69
2021/11/02 09:21:56;;;;;;;31.70;20.58;;;7.80;99.90;;;;;;5096151;28;20044;-69
2021/11/02 09:24:25;;;;;;;39.33;21.13;;;7.90;99.90;;;;;;5095584;28;20119;-69
2021/11/02 09:26:51;;;;;;;35.38;20.77;;;7.90;99.90;;;;;;5094594;28;20075;-70
2021/11/02 09:29:20;;;;;;;32.65;21.02;;;7.90;99.90;;;;;;5093888;28;20373;-69
2021/11/02 09:31:47;;;;;;;36.67;23.02;;;8.00;99.90;;;;;;5094488;28;20059;-69
2021/11/02 09:34:12;;;;;;;32.03;21.17;;;8.00;99.90;;;;;;5095922;28;20036;-70
2021/11/02 09:36:52;;;;;;;34.15;21.48;;;8.10;99.90;;;;;;5095437;28;20032;-70
2021/11/02 09:39:20;;;;;;;31.05;20.75;;;8.10;99.90;;;;;;5095406;28;20047;-70
2021/11/02 09:41:55;;;;;;;28.83;19.73;;;8.20;99.90;;;;;;5094538;28;20079;-70
2021/11/02 09:45:00;;;;;;;30.58;19.50;;;8.20;99.90;;;;;;5094575;28;20083;-69
2021/11/02 09:47:38;;;;;;;30.30;19.75;;;8.30;99.90;;;;;;5094401;28;20511;-70
2021/11/02 09:50:27;;;;;;;26.27;17.52;;;8.40;99.90;;;;;;5095007;28;20044;-70
2021/11/02 09:53:09;;;;;;;25.58;17.70;;;8.40;99.90;;;;;;5095617;28;20040;-70
2021/11/02 09:55:58;;;;;;;31.80;18.55;;;8.50;99.90;;;;;;5093787;28;20036;-69
2021/11/02 09:59:00;;;;;;;32.13;20.65;;;8.50;99.90;;;;;;5094059;28;20428;-70
2021/11/02 10:01:43;;;;;;;29.73;20.40;;;8.50;99.90;;;;;;5093634;28;20047;-70
2021/11/02 10:04:37;;;;;;;31.20;21.08;;;8.60;99.90;;;;;;5077211;28;20047;-69
2021/11/02 10:07:16;;;;;;;24.88;19.17;;;8.60;99.90;;;;;;5093996;28;20052;-69
2021/11/02 10:09:59;;;;;;;29.55;19.70;;;8.70;99.90;;;;;;5094443;28;20362;-69
2021/11/02 10:12:57;;;;;;;28.45;19.80;;;8.70;99.90;;;;;;5093509;28;20119;-70
2021/11/02 10:15:41;;;;;;;26.90;19.88;;;8.80;99.90;;;;;;5094746;28;20553;-69
2021/11/02 10:18:37;;;;;;;29.00;20.00;;;8.90;99.90;;;;;;5093440;28;20501;-70
2021/11/02 10:21:30;;;;;;;27.10;20.23;;;8.90;99.90;;;;;;5005965;28;20125;-69
2021/11/02 10:24:11;;;;;;;34.60;20.75;;;8.90;99.90;;;;;;5093387;28;20104;-69
2021/11/02 10:27:01;;;;;;;24.80;18.95;;;8.90;99.90;;;;;;5109909;28;20108;-69
2021/11/02 10:29:38;;;;;;;24.05;19.65;;;9.00;99.90;;;;;;5113169;28;20043;-69
2021/11/02 10:32:09;;;;;;;23.98;18.67;;;9.00;99.90;;;;;;5113523;28;20039;-69
2021/11/02 10:35:00;;;;;;;24.02;18.83;;;9.00;99.90;;;;;;5114998;28;20043;-71
2021/11/02 10:37:26;;;;;;;23.23;17.88;;;9.10;99.90;;;;;;5093139;28;20035;-72
2021/11/02 10:40:11;;;;;;;28.45;20.08;;;9.10;99.90;;;;;;5075958;28;20123;-71
2021/11/02 10:43:16;;;;;;;27.50;20.80;;;9.00;99.90;;;;;;5092747;28;20044;-72
2021/11/02 10:45:54;;;;;;;28.50;20.25;;;9.10;99.90;;;;;;5093136;28;20048;-72
2021/11/02 10:48:29;;;;;;;26.50;20.48;;;9.10;99.90;;;;;;5094197;28;20429;-72
2021/11/02 10:51:03;;;;;;;29.92;20.83;;;9.10;99.90;;;;;;5093989;28;20400;-70
2021/11/02 10:53:45;;;;;;;27.25;19.88;;;9.10;99.90;;;;;;5094499;28;20044;-70
2021/11/02 10:56:27;;;;;;;23.43;19.07;;;9.20;99.90;;;;;;5094536;28;20032;-70
2021/11/02 10:58:56;;;;;;;24.92;19.45;;;9.20;99.90;;;;;;5094315;28;20079;-70
2021/11/02 11:01:22;;;;;;;23.15;19.02;;;9.30;99.90;;;;;;5094206;28;20367;-69
2021/11/02 11:03:49;;;;;;;24.92;19.23;;;9.40;99.90;;;;;;5093876;28;20044;-69
2021/11/02 11:06:16;;;;;;;26.48;17.67;;;9.40;99.90;;;;;;5094392;28;20372;-69
2021/11/02 11:08:44;;;;;;;24.50;18.38;;;9.40;99.90;;;;;;5093698;28;20036;-71
2021/11/02 11:11:14;;;;;;;26.00;18.52;;;9.50;99.90;;;;;;5092711;28;20507;-71
2021/11/02 11:13:44;;;;;;;21.52;17.35;;;9.60;99.90;;;;;;5092558;28;20043;-71
2021/11/02 11:16:16;;;;;;;23.08;17.40;;;9.60;99.90;;;;;;5094183;28;20040;-69
2021/11/02 11:19:01;;;;;;;19.87;16.07;;;9.70;99.90;;;;;;5093272;28;20115;-69
2021/11/02 11:21:28;;;;;;;20.05;15.52;;;9.80;99.90;;;;;;5074851;28;20032;-68
2021/11/02 11:23:56;;;;;;;23.63;15.95;;;9.90;99.90;;;;;;5093489;28;20036;-68
2021/11/02 11:26:25;;;;;;;19.05;14.77;;;9.90;99.90;;;;;;5092276;28;20076;-68
2021/11/02 11:28:54;;;;;;;19.92;14.63;;;10.00;99.90;;;;;;5093190;28;20044;-68
2021/11/02 11:31:22;;;;;;;19.90;15.10;;;10.00;99.90;;;;;;5092547;28;20529;-68
2021/11/02 11:33:55;;;;;;;21.60;14.50;;;10.10;99.90;;;;;;5093868;28;20388;-68
2021/11/02 11:36:22;;;;;;;;;;;10.10;99.90;;;;;;5094336;28;20040;-68
2021/11/02 11:38:52;;;;;;;16.77;14.70;;;10.20;99.90;;;;;;5093184;28;20306;-68
2021/11/02 11:41:19;;;;;;;15.98;13.13;;;10.20;99.90;;;;;;5093522;28;20072;-68
2021/11/02 11:43:49;;;;;;;23.45;14.63;;;10.20;99.90;;;;;;5093681;28;20040;-68
2021/11/02 11:46:18;;;;;;;19.05;14.45;;;10.30;99.90;;;;;;5092419;28;20492;-69
2021/11/02 11:48:52;;;;;;;21.13;13.30;;;10.30;99.90;;;;;;5093067;28;20420;-68
2021/11/02 11:51:23;;;;;;;16.77;13.13;;;10.20;99.90;;;;;;5091910;28;20051;-69
2021/11/02 11:53:57;;;;;;;19.20;13.40;;;10.30;99.90;;;;;;5092101;28;20158;-68
2021/11/02 11:56:23;;;;;;;16.58;12.45;;;10.30;99.90;;;;;;5075147;28;20048;-68
2021/11/02 11:58:51;;;;;;;14.65;11.55;;;10.30;99.90;;;;;;5092891;28;20036;-69
2021/11/02 12:01:31;;;;;;;14.38;11.35;;;10.30;99.90;;;;;;5092991;28;20127;-69
2021/11/02 12:04:13;;;;;;;14.82;10.48;;;10.40;99.90;;;;;;5093245;28;20044;-69
2021/11/02 12:07:02;;;;;;;16.65;10.25;;;10.40;99.90;;;;;;5093227;28;20115;-69
2021/11/02 12:09:37;;;;;;;14.90;9.65;;;10.40;99.90;;;;;;5092631;28;20044;-68
2021/11/02 12:12:06;;;;;;;14.40;8.88;;;10.40;99.90;;;;;;5093170;28;20029;-68
2021/11/02 12:14:34;;;;;;;11.13;8.52;;;10.50;99.90;;;;;;5093266;28;20481;-69
2021/11/02 12:17:05;;;;;;;10.38;8.60;;;10.50;99.90;;;;;;5092309;28;20059;-70
2021/11/02 12:19:39;;;;;;;12.50;8.77;;;10.60;99.90;;;;;;5091632;28;20388;-70
2021/11/02 12:22:12;;;;;;;11.38;8.35;;;10.60;99.90;;;;;;5075534;28;20068;-68
2021/11/02 12:24:41;;;;;;;12.85;8.45;;;10.60;99.90;;;;;;5091626;28;20055;-68
2021/11/02 12:27:17;;;;;;;11.90;8.27;;;10.60;99.90;;;;;;5091469;28;20043;-71
2021/11/02 12:29:48;;;;;;;12.38;9.27;;;10.60;99.90;;;;;;5089539;28;20545;-71
2021/11/02 12:32:17;;;;;;;10.52;7.90;;;10.50;99.90;;;;;;5073528;28;20040;-71
2021/11/02 12:34:46;;;;;;;10.35;8.05;;;10.50;99.90;;;;;;5094686;28;20040;-71
2021/11/02 12:37:13;;;;;;;12.45;8.48;;;10.50;99.90;;;;;;5095113;28;20115;-71
2021/11/02 12:39:40;;;;;;;11.27;7.05;;;10.50;99.90;;;;;;5093687;28;20476;-75
2021/11/02 12:42:06;;;;;;;11.18;8.57;;;10.70;99.90;;;;;;5096428;28;20125;-75
2021/11/02 12:44:34;;;;;;;7.38;6.60;;;10.80;99.90;;;;;;5096914;28;20067;-75
2021/11/02 12:47:03;;;;;;;8.95;6.68;;;10.90;99.90;;;;;;5095936;28;20047;-75
2021/11/02 12:49:57;;;;;;;13.23;7.47;;;11.00;99.90;;;;;;5094500;28;20035;-75
2021/11/02 12:52:32;;;;;;;11.05;7.22;;;11.10;99.90;;;;;;5096078;28;20440;-74
2021/11/02 12:55:02;;;;;;;10.60;6.88;;;11.20;99.90;;;;;;5096928;28;20472;-75
2021/11/02 12:57:34;;;;;;;9.82;6.20;;;11.20;99.90;;;;;;5096754;28;20118;-75
2021/11/02 13:00:00;;;;;;;10.05;6.53;;;11.30;99.90;;;;;;5106805;28;20046;-75
2021/11/02 13:02:33;;;;;;;11.02;6.90;;;11.30;99.90;;;;;;5110232;28;20043;-75
2021/11/02 13:05:04;;;;;;;10.02;6.93;;;11.40;99.90;;;;;;5096550;28;20499;-75
2021/11/02 13:07:38;;;;;;;7.78;6.32;;;11.40;99.90;;;;;;5095320;28;20059;-75
2021/11/02 13:10:16;;;;;;;8.30;6.90;;;11.40;99.90;;;;;;5096104;28;20062;-75
2021/11/02 13:12:48;;;;;;;11.27;6.80;;;11.50;99.90;;;;;;5094952;28;20071;-75
2021/11/02 13:15:14;;;;;;;11.23;6.63;;;11.50;99.90;;;;;;5095966;28;20101;-75
2021/11/02 13:17:46;;;;;;;8.35;6.03;;;11.50;99.90;;;;;;5094598;28;20123;-75
2021/11/02 13:20:25;;;;;;;7.53;5.50;;;11.50;99.90;;;;;;5095598;28;20496;-75
2021/11/02 13:22:52;;;;;;;8.55;5.40;;;11.50;99.90;;;;;;5095817;28;20048;-75
2021/11/02 13:25:23;;;;;;;7.22;5.00;;;11.60;99.90;;;;;;5094710;28;20040;-75
2021/11/02 13:27:53;;;;;;;11.55;5.13;;;11.60;99.90;;;;;;5096136;28;20522;-75
2021/11/02 13:30:38;;;;;;;8.88;5.32;;;11.50;99.90;;;;;;5094783;28;20048;-75
2021/11/02 13:33:17;;;;;;;8.10;4.95;;;11.50;99.90;;;;;;5095710;28;20039;-75
2021/11/02 13:35:50;;;;;;;6.65;4.80;;;11.50;99.90;;;;;;5095646;28;20476;-75
2021/11/02 13:38:30;;;;;;;7.47;5.22;;;11.50;99.90;;;;;;5094342;28;20430;-75
2021/11/02 13:41:22;;;;;;;9.82;5.55;;;11.40;99.90;;;;;;5094555;28;20170;-75
2021/11/02 13:43:55;;;;;;;8.55;5.25;;;11.30;99.90;;;;;;5094540;28;20126;-75
2021/11/02 13:46:24;;;;;;;8.65;5.07;;;11.20;99.90;;;;;;5094432;28;20048;-75
2021/11/02 13:48:50;;;;;;;7.88;5.47;;;11.20;99.90;;;;;;5094078;28;20035;-75
2021/11/02 13:51:18;;;;;;;7.05;5.07;;;11.20;99.90;;;;;;5095135;28;20040;-75
2021/11/02 13:53:44;;;;;;;7.25;5.10;;;11.20;99.90;;;;;;5095426;28;20039;-75
2021/11/02 13:56:25;;;;;;;10.45;5.07;;;11.10;99.90;;;;;;5095360;28;20043;-75
2021/11/02 13:58:52;;;;;;;5.97;5.15;;;11.20;99.90;;;;;;5095005;28;20047;-75
2021/11/02 14:01:45;;;;;;;8.52;4.68;;;11.10;99.90;;;;;;5095322;28;20054;-75
2021/11/02 14:04:40;;;;;;;6.90;5.07;;;11.10;99.90;;;;;;5095249;28;20044;-75
2021/11/02 14:07:24;;;;;;;5.75;4.78;;;11.10;99.90;;;;;;5095552;28;20407;-75
2021/11/02 14:10:08;;;;;;;8.10;4.40;;;11.10;99.90;;;;;;5094674;28;20466;-75
2021/11/02 14:12:53;;;;;;;7.20;4.45;;;11.10;99.90;;;;;;5076746;28;20119;-75
2021/11/02 14:15:21;;;;;;;6.40;4.10;;;11.10;99.90;;;;;;5093578;28;20044;-75
2021/11/02 14:18:09;;;;;;;6.75;4.47;;;11.00;99.90;;;;;;5094611;28;20503;-75
2021/11/02 14:20:41;;;;;;;7.05;4.85;;;11.00;99.90;;;;;;5095242;28;20044;-75
2021/11/02 14:23:38;;;;;;;8.73;4.60;;;11.00;99.90;;;;;;5094212;28;20384;-75
2021/11/02 14:26:25;;;;;;;7.70;5.90;;;11.00;99.90;;;;;;5078186;28;20105;-75
2021/11/02 14:28:59;;;;;;;8.52;6.57;;;10.90;99.90;;;;;;5094462;28;20032;-72
2021/11/02 14:31:37;;;;;;;13.23;10.45;;;10.90;99.90;;;;;;5093455;28;20048;-75
2021/11/02 14:34:05;;;;;;;18.05;16.35;;;10.80;99.90;;;;;;5094459;28;20441;-75
2021/11/02 14:36:41;;;;;;;12.43;9.75;;;10.70;99.90;;;;;;5093365;28;20040;-74
2021/11/02 14:39:08;;;;;;;10.90;8.85;;;10.60;99.90;;;;;;5097172;28;20036;-75
2021/11/02 14:41:36;;;;;;;15.18;9.43;;;10.50;99.90;;;;;;5095486;28;20051;-76
2021/11/02 14:44:14;;;;;;;12.13;9.10;;;10.50;99.90;;;;;;5092977;28;20123;-75
2021/11/02 14:46:40;;;;;;;9.50;7.60;;;10.40;99.90;;;;;;5093048;28;20441;-75
2021/11/02 14:49:08;;;;;;;8.05;7.13;;;10.30;99.90;;;;;;5094297;28;20036;-75
2021/11/02 14:51:34;;;;;;;9.07;7.20;;;10.30;99.90;;;;;;5093975;28;20087;-75
2021/11/02 14:54:20;;;;;;;11.45;9.18;;;10.20;99.90;;;;;;5093239;28;20076;-75
2021/11/02 14:56:46;;;;;;;16.65;11.93;;;10.20;99.90;;;;;;5093039;28;20031;-75
2021/11/02 14:59:15;;;;;;;9.52;8.55;;;10.20;99.90;;;;;;5094148;28;20430;-75
2021/11/02 15:01:40;;;;;;;10.07;9.00;;;10.10;99.90;;;;;;5093815;28;20056;-74
2021/11/02 15:04:10;;;;;;;10.23;7.75;;;10.10;99.90;;;;;;5093832;28;20430;-73
2021/11/02 15:06:41;;;;;;;8.00;7.03;;;10.10;99.90;;;;;;5094192;28;20036;-75
2021/11/02 15:09:09;;;;;;;13.38;8.55;;;10.10;99.90;;;;;;5092359;28;20090;-75
2021/11/02 15:11:42;;;;;;;10.40;8.07;;;10.10;99.90;;;;;;5093529;28;20047;-75
2021/11/02 15:14:17;;;;;;;12.07;8.65;;;10.20;99.90;;;;;;5094050;28;20036;-75
2021/11/02 15:16:52;;;;;;;9.77;7.85;;;10.10;99.90;;;;;;5092625;28;20036;-74
2021/11/02 15:19:20;;;;;;;19.42;15.73;;;10.10;99.90;;;;;;5093473;28;20043;-76
2021/11/02 15:21:53;;;;;;;36.90;33.20;;;10.10;99.90;;;;;;5093509;28;20043;-76
2021/11/02 15:24:27;;;;;;;21.45;19.15;;;10.10;99.90;;;;;;5093909;28;20396;-76
2021/11/02 15:27:12;;;;;;;22.77;20.42;;;10.10;99.90;;;;;;5093672;28;20100;-75
2021/11/02 15:29:43;;;;;;;17.83;15.02;;;10.10;99.90;;;;;;5092193;28;20040;-76
2021/11/02 15:32:15;;;;;;;11.55;9.15;;;10.00;99.90;;;;;;5093466;28;20476;-75
2021/11/02 15:34:42;;;;;;;9.63;8.60;;;10.00;99.90;;;;;;5093624;28;20113;-75
2021/11/02 15:37:12;;;;;;;9.50;7.90;;;10.00;99.90;;;;;;5093453;28;20048;-74
2021/11/02 15:39:38;;;;;;;12.25;8.45;;;10.00;99.90;;;;;;5093187;28;20033;-75
2021/11/02 15:42:04;;;;;;;10.75;8.95;;;10.00;99.90;;;;;;5092063;28;20047;-75
2021/11/02 15:44:30;;;;;;;8.38;7.57;;;10.00;99.90;;;;;;5093450;28;20051;-75
2021/11/02 15:46:56;;;;;;;12.02;8.85;;;10.00;99.90;;;;;;5092106;28;20117;-75
2021/11/02 15:49:23;;;;;;;12.82;8.48;;;10.00;99.90;;;;;;5093008;28;20036;-75
2021/11/02 15:51:57;;;;;;;12.27;8.00;;;10.00;99.90;;;;;;5093386;28;20036;-75
2021/11/02 15:54:26;;;;;;;10.50;8.07;;;10.00;99.90;;;;;;5092108;28;20050;-74
2021/11/02 15:56:53;;;;;;;11.60;7.72;;;10.00;99.90;;;;;;5093154;28;20050;-75
2021/11/02 15:59:23;;;;;;;9.18;7.50;;;10.00;99.90;;;;;;5093496;28;20040;-74
2021/11/02 16:01:50;;;;;;;12.52;7.53;;;10.00;99.90;;;;;;5092417;28;20515;-75
2021/11/02 16:04:22;;;;;;;9.43;7.93;;;10.00;99.90;;;;;;5093586;28;20055;-75
2021/11/02 16:07:07;;;;;;;8.48;7.10;;;10.00;99.90;;;;;;5094675;28;20028;-75
2021/11/02 16:10:03;;;;;;;10.07;7.75;;;9.90;99.90;;;;;;5097122;28;20039;-75
2021/11/02 16:12:39;;;;;;;9.88;7.63;;;9.90;99.90;;;;;;5075283;28;20048;-75
2021/11/02 16:15:10;;;;;;;9.15;5.97;;;9.80;99.90;;;;;;5097557;28;20068;-75
2021/11/02 16:17:40;;;;;;;7.80;5.50;;;9.80;99.90;;;;;;5097470;28;20044;-75
2021/11/02 16:20:07;;;;;;;7.97;5.68;;;9.80;99.90;;;;;;5097104;28;20115;-75
2021/11/02 16:22:49;;;;;;;7.20;5.15;;;9.70;99.90;;;;;;5097137;28;20052;-74
2021/11/02 16:25:15;;;;;;;7.57;4.70;;;9.70;99.90;;;;;;5097388;28;20040;-74
2021/11/02 16:27:56;;;;;;;14.15;10.27;;;9.60;99.90;;;;;;5097209;28;20032;-73
2021/11/02 16:30:25;;;;;;;13.07;8.32;;;9.60;99.90;;;;;;5095349;28;20044;-74
2021/11/02 16:32:54;;;;;;;6.85;6.15;;;9.60;99.90;;;;;;5095717;28;20065;-74
2021/11/02 16:35:41;;;;;;;7.18;6.45;;;9.60;99.90;;;;;;5097232;28;20043;-74
2021/11/02 16:38:35;;;;;;;6.07;4.97;;;9.60;99.90;;;;;;5096928;28;20062;-74
2021/11/02 16:41:02;;;;;;;;;;;9.50;99.90;;;;;;5096199;28;20055;-74
2021/11/02 16:43:33;;;;;;;9.18;5.60;;;9.50;99.90;;;;;;5095721;28;19956;-75
2021/11/02 16:46:02;;;;;;;8.02;6.07;;;9.50;99.90;;;;;;5096605;28;20044;-75
2021/11/02 16:48:41;;;;;;;8.73;6.57;;;9.50;99.90;;;;;;5096093;28;20040;-75
2021/11/02 16:51:07;;;;;;;9.10;6.40;;;9.50;99.90;;;;;;5097071;28;20036;-74
2021/11/02 16:53:33;;;;;;;8.68;5.68;;;9.40;99.90;;;;;;5096715;28;20032;-75
2021/11/02 16:56:29;;;;;;;8.32;5.03;;;9.40;99.90;;;;;;5096924;28;20047;-74
2021/11/02 16:58:55;;;;;;;9.38;4.80;;;9.40;99.90;;;;;;5092796;28;20051;-74
2021/11/02 17:01:29;;;;;;;8.85;4.97;;;9.40;99.90;;;;;;5078552;28;20040;-74
2021/11/02 17:03:55;;;;;;;9.00;5.15;;;9.40;99.90;;;;;;5096412;28;20055;-74
2021/11/02 17:06:30;;;;;;;5.75;5.07;;;9.40;99.90;;;;;;5096278;28;20036;-75
2021/11/02 17:08:59;;;;;;;9.43;5.20;;;9.30;99.90;;;;;;5096321;28;20040;-75
2021/11/02 17:11:24;;;;;;;9.68;5.85;;;9.30;99.90;;;;;;5096022;28;20036;-75
2021/11/02 17:13:50;;;;;;;7.22;5.18;;;9.30;99.90;;;;;;5095013;28;20054;-75
2021/11/02 17:16:19;;;;;;;8.73;6.20;;;9.30;99.90;;;;;;5096327;28;20484;-75
2021/11/02 17:18:55;;;;;;;8.98;6.78;;;9.30;99.90;;;;;;5094367;28;20032;-75
2021/11/02 17:21:28;;;;;;;7.60;6.10;;;9.30;99.90;;;;;;5096225;28;20051;-75
2021/11/02 17:23:53;;;;;;;12.68;7.00;;;9.30;99.90;;;;;;5096423;28;20123;-75
2021/11/02 17:26:21;;;;;;;8.75;6.30;;;9.30;99.90;;;;;;5094805;28;20071;-73
2021/11/02 17:28:50;;;;;;;6.57;5.53;;;9.30;99.90;;;;;;5095608;28;20046;-75
2021/11/02 17:31:19;;;;;;;7.82;5.60;;;9.30;99.90;;;;;;5095092;28;20691;-76
2021/11/02 17:33:45;;;;;;;9.10;5.60;;;9.30;99.90;;;;;;5095702;28;20047;-77
2021/11/02 17:36:13;;;;;;;10.88;5.22;;;9.30;99.90;;;;;;5094652;28;20036;-77
2021/11/02 17:38:41;;;;;;;6.57;4.97;;;9.30;99.90;;;;;;5097879;28;20085;-78
2021/11/02 17:41:08;;;;;;;6.95;5.78;;;9.40;99.90;;;;;;5095079;28;20134;-77
2021/11/02 17:43:36;;;;;;;7.10;5.47;;;9.40;99.90;;;;;;5095402;28;20105;-78
2021/11/02 17:46:03;;;;;;;8.30;6.10;;;9.30;99.90;;;;;;5094928;28;20096;-78
2021/11/02 17:48:29;;;;;;;6.85;6.15;;;9.30;99.90;;;;;;5096015;28;20051;-77
2021/11/02 17:50:55;;;;;;;9.10;5.68;;;9.30;99.90;;;;;;5095481;28;20044;-77
2021/11/02 17:53:22;;;;;;;10.05;6.47;;;9.30;99.90;;;;;;5094001;28;20028;-76
2021/11/02 17:55:49;;;;;;;6.68;5.70;;;9.30;99.90;;;;;;5095855;28;20506;-76
2021/11/02 17:58:16;;;;;;;7.38;6.07;;;9.30;99.90;;;;;;5093971;28;20472;-76
2021/11/02 18:00:42;;;;;;;9.98;6.82;;;9.30;99.90;;;;;;5093903;28;20060;-75
2021/11/02 18:03:10;;;;;;;9.18;6.00;;;9.30;99.90;;;;;;5095175;28;20083;-74
2021/11/02 18:05:36;;;;;;;9.20;6.85;;;9.30;99.90;;;;;;5094268;28;20047;-75
2021/11/02 18:08:04;;;;;;;8.13;6.75;;;9.20;99.90;;;;;;5094087;28;20040;-77
2021/11/02 18:10:31;;;;;;;7.05;5.55;;;9.20;99.90;;;;;;5094848;28;20543;-77